Time;durP1;ratioP1;P1;durP2;ratioP2;P2;SDS_P1;SDS_P2;PMS_P1;PMS_P2;Temp;Humidity;BMP_temperature;BMP_pressure;BME280_temperature;BME280_humidity;BME280_pressure;Samples;Min_cycle;Max_cycle;Signal;HPM_P1;HPM_P2
2022/05/15 00:02:22;;;;;;;9.45;3.85;;;;;;;;;;5059068;28;20093;-77
2022/05/15 00:04:48;;;;;;;11.13;3.75;;;;;;;;;;5065735;28;20593;-83
2022/05/15 00:07:13;;;;;;;12.48;3.80;;;;;;;;;;5043052;28;20361;-83
2022/05/15 00:09:39;;;;;;;7.40;2.88;;;;;;;;;;5046405;28;20107;-78
2022/05/15 00:12:05;;;;;;;11.20;3.45;;;;;;;;;;5062433;28;20032;-80
2022/05/15 00:14:32;;;;;;;8.80;3.42;;;;;;;;;;5059498;28;20035;-84
2022/05/15 00:16:58;;;;;;;12.48;3.88;;;;;;;;;;5044215;28;20090;-79
2022/05/15 00:19:24;;;;;;;9.32;3.15;;;;;;;;;;5043748;28;20021;-84
2022/05/15 00:21:49;;;;;;;11.43;3.58;;;;;;;;;;5058890;28;20883;-79
2022/05/15 00:24:14;;;;;;;9.55;3.15;;;;;;;;;;5059710;28;20416;-78
2022/05/15 00:26:40;;;;;;;9.82;3.25;;;;;;;;;;5044035;28;20020;-77
2022/05/15 00:29:05;;;;;;;11.23;3.25;;;;;;;;;;5067690;28;20024;-84
2022/05/15 00:31:31;;;;;;;10.10;3.10;;;;;;;;;;5046489;28;20029;-78
2022/05/15 00:33:56;;;;;;;11.48;3.50;;;;;;;;;;5047051;28;20392;-85
2022/05/15 00:36:21;;;;;;;9.35;3.30;;;;;;;;;;5062935;28;20472;-78
2022/05/15 00:38:47;;;;;;;9.65;3.40;;;;;;;;;;5043507;28;20028;-77
2022/05/15 00:41:13;;;;;;;11.15;3.30;;;;;;;;;;5039709;28;20033;-78
2022/05/15 00:43:46;;;;;;;11.10;3.70;;;;;;;;;;5049813;28;20511;-77
2022/05/15 00:46:18;;;;;;;11.43;3.08;;;;;;;;;;5041756;28;20049;-78
2022/05/15 00:48:45;;;;;;;9.02;3.20;;;;;;;;;;5044417;28;20032;-79
2022/05/15 00:51:28;;;;;;;8.48;3.17;;;;;;;;;;5059791;28;20056;-80
2022/05/15 00:53:59;;;;;;;11.63;3.50;;;;;;;;;;5045396;28;20030;-78
2022/05/15 00:56:27;;;;;;;11.27;3.92;;;;;;;;;;5065063;28;20036;-78
2022/05/15 00:58:58;;;;;;;11.95;3.78;;;;;;;;;;5057631;28;20074;-78
2022/05/15 01:01:24;;;;;;;11.20;3.50;;;;;;;;;;5044313;28;20476;-83
2022/05/15 01:03:49;;;;;;;8.23;3.28;;;;;;;;;;5041792;28;20032;-82
2022/05/15 01:06:15;;;;;;;13.57;4.00;;;;;;;;;;5040383;28;20032;-78
2022/05/15 01:08:40;;;;;;;10.30;3.40;;;;;;;;;;5048293;28;20492;-77
2022/05/15 01:11:10;;;;;;;13.35;3.63;;;;;;;;;;5045177;28;20945;-83
2022/05/15 01:13:38;;;;;;;12.10;3.67;;;;;;;;;;5064705;28;20077;-78
2022/05/15 01:16:05;;;;;;;10.73;3.28;;;;;;;;;;5060373;28;20036;-77
2022/05/15 01:18:35;;;;;;;15.05;3.80;;;;;;;;;;5059599;28;20071;-82
2022/05/15 01:21:16;;;;;;;14.68;3.95;;;;;;;;;;5059354;28;20044;-83
2022/05/15 01:23:41;;;;;;;11.13;3.22;;;;;;;;;;5044704;28;20044;-78
2022/05/15 01:26:07;;;;;;;11.35;3.28;;;;;;;;;;5061221;28;20028;-77
2022/05/15 01:28:32;;;;;;;10.48;3.78;;;;;;;;;;5052876;28;20018;-81
2022/05/15 01:30:57;;;;;;;8.23;2.80;;;;;;;;;;5044898;28;20036;-81
2022/05/15 01:33:23;;;;;;;10.57;3.30;;;;;;;;;;5047151;28;20488;-84
2022/05/15 01:35:48;;;;;;;9.30;3.30;;;;;;;;;;5049202;28;20028;-79
2022/05/15 01:38:14;;;;;;;10.23;3.67;;;;;;;;;;5067056;28;20024;-82
2022/05/15 01:40:40;;;;;;;12.25;3.88;;;;;;;;;;5048735;28;20021;-80
2022/05/15 01:43:06;;;;;;;9.63;3.53;;;;;;;;;;5069843;28;20032;-77
2022/05/15 01:45:32;;;;;;;8.93;2.85;;;;;;;;;;5051274;28;20056;-77
2022/05/15 01:47:58;;;;;;;11.35;3.08;;;;;;;;;;5065826;28;20031;-79
2022/05/15 01:50:24;;;;;;;11.07;3.08;;;;;;;;;;5050569;28;20024;-78
2022/05/15 01:52:49;;;;;;;11.32;3.67;;;;;;;;;;5047907;28;20458;-77
2022/05/15 01:55:15;;;;;;;9.90;2.90;;;;;;;;;;5059164;28;20103;-79
2022/05/15 01:57:41;;;;;;;11.20;3.65;;;;;;;;;;5063375;28;20061;-77
2022/05/15 02:00:11;;;;;;;13.27;3.80;;;;;;;;;;5047340;28;20103;-81
2022/05/15 02:02:37;;;;;;;10.25;3.60;;;;;;;;;;5045453;28;20058;-85
2022/05/15 02:05:03;;;;;;;11.73;3.28;;;;;;;;;;5045187;28;20032;-78
2022/05/15 02:07:28;;;;;;;9.18;3.30;;;;;;;;;;5065879;28;20135;-78
2022/05/15 02:09:54;;;;;;;10.63;3.03;;;;;;;;;;5045996;28;20021;-85
2022/05/15 02:12:19;;;;;;;10.15;3.00;;;;;;;;;;5060456;28;20032;-82
2022/05/15 02:14:44;;;;;;;14.00;4.07;;;;;;;;;;5050582;28;20024;-84
2022/05/15 02:17:10;;;;;;;8.82;3.10;;;;;;;;;;5052515;28;20024;-81
2022/05/15 02:19:35;;;;;;;7.25;2.70;;;;;;;;;;5063802;28;20597;-82
2022/05/15 02:22:00;;;;;;;9.98;3.60;;;;;;;;;;5048065;28;20085;-82
2022/05/15 02:24:26;;;;;;;12.90;3.55;;;;;;;;;;5058967;28;20027;-78
2022/05/15 02:26:51;;;;;;;10.38;3.42;;;;;;;;;;5059873;28;20116;-77
2022/05/15 02:29:17;;;;;;;10.95;3.40;;;;;;;;;;5046370;28;20452;-81
2022/05/15 02:31:42;;;;;;;10.10;3.13;;;;;;;;;;5050240;28;20028;-84
2022/05/15 02:34:08;;;;;;;8.95;3.22;;;;;;;;;;5058792;28;20090;-79
2022/05/15 02:36:33;;;;;;;9.95;3.55;;;;;;;;;;5051298;28;20532;-79
2022/05/15 02:38:58;;;;;;;8.77;3.20;;;;;;;;;;5044290;28;20058;-82
2022/05/15 02:41:24;;;;;;;9.85;3.30;;;;;;;;;;5063176;28;20024;-85
2022/05/15 02:43:50;;;;;;;10.23;3.42;;;;;;;;;;5067653;28;20039;-81
2022/05/15 02:46:15;;;;;;;10.73;3.50;;;;;;;;;;5064977;28;20086;-78
2022/05/15 02:51:25;;;;;;;11.52;3.40;;;;;;;;;;5067685;28;20054;-81
2022/05/15 02:53:50;;;;;;;10.63;3.20;;;;;;;;;;5045468;28;20033;-82
2022/05/15 02:56:17;;;;;;;14.20;3.58;;;;;;;;;;5062733;28;20488;-80
2022/05/15 02:58:43;;;;;;;10.02;3.42;;;;;;;;;;5063844;28;20029;-83
2022/05/15 03:01:08;;;;;;;12.18;3.50;;;;;;;;;;5046724;28;20025;-81
2022/05/15 03:03:34;;;;;;;12.55;4.30;;;;;;;;;;5041380;28;20025;-77
2022/05/15 03:05:59;;;;;;;13.82;3.85;;;;;;;;;;5046124;28;20043;-81
2022/05/15 03:08:25;;;;;;;9.20;3.25;;;;;;;;;;5061348;28;20036;-78
2022/05/15 03:10:51;;;;;;;14.23;4.00;;;;;;;;;;5062045;28;20024;-84
2022/05/15 03:13:16;;;;;;;11.88;3.50;;;;;;;;;;5043844;28;20063;-82
2022/05/15 03:15:41;;;;;;;11.93;3.63;;;;;;;;;;5060258;28;20047;-78
2022/05/15 03:18:07;;;;;;;10.68;3.33;;;;;;;;;;5041906;28;20050;-82
2022/05/15 03:20:33;;;;;;;9.85;3.40;;;;;;;;;;5063550;28;20036;-79
2022/05/15 03:22:59;;;;;;;11.30;4.00;;;;;;;;;;5045950;28;20384;-77
2022/05/15 03:25:26;;;;;;;10.45;3.38;;;;;;;;;;5047598;28;20029;-82
2022/05/15 03:27:52;;;;;;;11.60;4.55;;;;;;;;;;5066286;28;20610;-84
2022/05/15 03:30:18;;;;;;;10.75;3.63;;;;;;;;;;5044087;28;20032;-80
2022/05/15 03:32:43;;;;;;;9.57;3.85;;;;;;;;;;5047817;28;20805;-78
2022/05/15 03:35:11;;;;;;;13.60;3.63;;;;;;;;;;5048666;28;20031;-84
2022/05/15 03:37:37;;;;;;;10.68;3.58;;;;;;;;;;5043991;28;20025;-78
2022/05/15 03:40:02;;;;;;;11.82;3.70;;;;;;;;;;5045864;28;20027;-77
2022/05/15 03:42:28;;;;;;;14.55;4.15;;;;;;;;;;5041811;28;20031;-82
2022/05/15 03:44:53;;;;;;;10.98;3.15;;;;;;;;;;5032627;28;20160;-81
2022/05/15 03:47:19;;;;;;;10.68;3.53;;;;;;;;;;5026325;28;20537;-78
2022/05/15 03:49:44;;;;;;;14.23;4.00;;;;;;;;;;5022828;28;20029;-82
2022/05/15 03:52:10;;;;;;;9.90;3.97;;;;;;;;;;5045203;28;20056;-78
2022/05/15 03:54:35;;;;;;;12.80;3.70;;;;;;;;;;5043742;28;20040;-78
2022/05/15 03:57:02;;;;;;;8.65;3.30;;;;;;;;;;5029427;28;20028;-84
2022/05/15 03:59:33;;;;;;;12.70;3.70;;;;;;;;;;5043275;28;20104;-77
2022/05/15 04:02:00;;;;;;;10.60;3.63;;;;;;;;;;5025973;28;20044;-77
2022/05/15 04:04:26;;;;;;;13.73;4.18;;;;;;;;;;5041197;28;20116;-82
2022/05/15 04:06:52;;;;;;;10.07;3.70;;;;;;;;;;5023315;28;20075;-77
2022/05/15 04:09:18;;;;;;;9.93;3.88;;;;;;;;;;5024344;28;20021;-81
2022/05/15 04:11:43;;;;;;;10.98;3.50;;;;;;;;;;5018269;28;20123;-78
2022/05/15 04:14:10;;;;;;;14.10;3.83;;;;;;;;;;5026243;28;20021;-77
2022/05/15 04:16:35;;;;;;;11.40;3.50;;;;;;;;;;5043568;28;20029;-78
2022/05/15 04:19:01;;;;;;;12.80;4.03;;;;;;;;;;5042523;28;20021;-82
2022/05/15 04:21:27;;;;;;;9.63;3.25;;;;;;;;;;5042398;28;20987;-82
2022/05/15 04:23:52;;;;;;;12.13;3.70;;;;;;;;;;5038585;28;20052;-78
2022/05/15 04:26:18;;;;;;;12.32;3.38;;;;;;;;;;5026128;28;20024;-82
2022/05/15 04:28:43;;;;;;;11.00;3.38;;;;;;;;;;5028370;28;20121;-77
2022/05/15 04:31:08;;;;;;;9.38;3.40;;;;;;;;;;5029083;28;20078;-77
2022/05/15 04:33:34;;;;;;;10.68;3.92;;;;;;;;;;5019613;28;20119;-79
2022/05/15 04:36:00;;;;;;;11.32;3.75;;;;;;;;;;5043395;28;20547;-78
2022/05/15 04:38:27;;;;;;;12.20;3.65;;;;;;;;;;5041419;28;20025;-78
2022/05/15 04:40:52;;;;;;;10.57;3.67;;;;;;;;;;5023952;28;20032;-76
2022/05/15 04:43:18;;;;;;;11.98;3.63;;;;;;;;;;5041612;28;20389;-77
2022/05/15 04:45:44;;;;;;;11.40;3.72;;;;;;;;;;5060489;28;20064;-82
2022/05/15 04:48:10;;;;;;;10.43;3.70;;;;;;;;;;5047566;28;20480;-79
2022/05/15 04:50:37;;;;;;;12.68;4.03;;;;;;;;;;5063085;28;20078;-77
2022/05/15 04:53:04;;;;;;;9.27;3.65;;;;;;;;;;5045477;28;20143;-78
2022/05/15 04:55:29;;;;;;;9.93;3.47;;;;;;;;;;5064365;28;20033;-79
2022/05/15 04:57:55;;;;;;;8.52;3.25;;;;;;;;;;5046486;28;20032;-80
2022/05/15 05:00:20;;;;;;;10.50;3.83;;;;;;;;;;5060799;28;20040;-82
2022/05/15 05:02:45;;;;;;;10.63;3.58;;;;;;;;;;5067135;28;20029;-81
2022/05/15 05:05:11;;;;;;;9.85;3.47;;;;;;;;;;5046579;28;20495;-78
2022/05/15 05:07:37;;;;;;;11.32;3.70;;;;;;;;;;5050040;28;20051;-79
2022/05/15 05:10:04;;;;;;;13.50;4.05;;;;;;;;;;5046008;28;20025;-81
2022/05/15 05:12:29;;;;;;;10.50;3.53;;;;;;;;;;5060402;28;20028;-83
2022/05/15 05:14:54;;;;;;;12.75;4.22;;;;;;;;;;5050362;28;20468;-85
2022/05/15 05:17:20;;;;;;;11.93;3.88;;;;;;;;;;5051342;28;20553;-78
2022/05/15 05:19:45;;;;;;;11.07;3.88;;;;;;;;;;5062885;28;20039;-78
2022/05/15 05:22:10;;;;;;;11.93;4.22;;;;;;;;;;5047953;28;20090;-80
2022/05/15 05:24:36;;;;;;;11.68;3.80;;;;;;;;;;5048962;28;20472;-80
2022/05/15 05:27:01;;;;;;;14.25;4.32;;;;;;;;;;5062229;28;20029;-77
2022/05/15 05:29:27;;;;;;;22.35;4.32;;;;;;;;;;5066329;28;20070;-78
2022/05/15 05:31:53;;;;;;;12.98;3.92;;;;;;;;;;5059904;28;20032;-85
2022/05/15 05:34:18;;;;;;;12.57;4.05;;;;;;;;;;5063392;28;20609;-81
2022/05/15 05:36:44;;;;;;;13.43;4.03;;;;;;;;;;5065843;28;20085;-77
2022/05/15 05:39:10;;;;;;;16.02;4.28;;;;;;;;;;5062283;28;20027;-80
2022/05/15 05:41:35;;;;;;;9.93;4.05;;;;;;;;;;5061913;28;20097;-81
2022/05/15 05:44:00;;;;;;;10.93;3.90;;;;;;;;;;5061422;28;20058;-77
2022/05/15 05:46:27;;;;;;;10.90;4.30;;;;;;;;;;5049977;28;20032;-78
2022/05/15 05:48:53;;;;;;;11.32;4.25;;;;;;;;;;5051055;28;20024;-78
2022/05/15 05:51:19;;;;;;;10.48;4.20;;;;;;;;;;5050611;28;20496;-85
2022/05/15 05:53:44;;;;;;;11.70;4.88;;;;;;;;;;5049987;28;20071;-77
2022/05/15 05:56:09;;;;;;;13.50;4.88;;;;;;;;;;5048391;28;20040;-78
2022/05/15 05:58:36;;;;;;;10.63;4.13;;;;;;;;;;5047595;28;20032;-78
2022/05/15 06:01:02;;;;;;;14.32;4.63;;;;;;;;;;5043601;28;20143;-81
2022/05/15 06:06:11;;;;;;;13.38;3.97;;;;;;;;;;5061300;28;20031;-82
2022/05/15 06:08:36;;;;;;;10.98;4.30;;;;;;;;;;5052956;28;20024;-77
2022/05/15 06:11:02;;;;;;;12.50;4.60;;;;;;;;;;5049227;28;20041;-85
2022/05/15 06:13:27;;;;;;;16.08;4.53;;;;;;;;;;5049080;28;20039;-77
2022/05/15 06:15:54;;;;;;;12.38;4.68;;;;;;;;;;5044194;28;20017;-78
2022/05/15 06:18:20;;;;;;;14.85;4.47;;;;;;;;;;5063319;28;20028;-78
2022/05/15 06:20:45;;;;;;;10.75;5.30;;;;;;;;;;5062924;28;20031;-79
2022/05/15 06:23:10;;;;;;;12.80;5.15;;;;;;;;;;5044052;28;20024;-83
2022/05/15 06:25:36;;;;;;;14.35;4.85;;;;;;;;;;5049754;28;20025;-85
2022/05/15 06:28:02;;;;;;;15.05;5.38;;;;;;;;;;5047834;28;20028;-79
2022/05/15 06:30:28;;;;;;;12.80;4.65;;;;;;;;;;5049953;28;20560;-78
2022/05/15 06:32:53;;;;;;;16.85;4.97;;;;;;;;;;5047784;28;20111;-80
2022/05/15 06:35:19;;;;;;;15.20;5.57;;;;;;;;;;5065032;28;20077;-79
2022/05/15 06:37:44;;;;;;;14.20;6.30;;;;;;;;;;5047513;28;20118;-77
2022/05/15 06:40:12;;;;;;;12.65;4.97;;;;;;;;;;5044986;28;20765;-85
2022/05/15 06:42:37;;;;;;;14.45;5.20;;;;;;;;;;5049945;28;20052;-77
2022/05/15 06:45:05;;;;;;;16.92;5.40;;;;;;;;;;5061546;28;20068;-80
2022/05/15 06:47:30;;;;;;;15.65;5.82;;;;;;;;;;5056400;28;20496;-77
2022/05/15 06:49:58;;;;;;;12.93;5.50;;;;;;;;;;5064097;28;20031;-76
2022/05/15 06:52:24;;;;;;;11.43;5.15;;;;;;;;;;5049424;28;20028;-85
2022/05/15 06:54:49;;;;;;;11.63;5.40;;;;;;;;;;5066095;28;20039;-78
2022/05/15 06:57:30;;;;;;;11.05;5.53;;;;;;;;;;5064034;28;20029;-78
2022/05/15 07:00:01;;;;;;;13.50;5.80;;;;;;;;;;5044390;28;20980;-80
2022/05/15 07:02:28;;;;;;;10.88;5.18;;;;;;;;;;5039643;28;20025;-80
2022/05/15 07:04:54;;;;;;;12.25;5.28;;;;;;;;;;5038969;28;20412;-80
2022/05/15 07:07:20;;;;;;;14.50;5.53;;;;;;;;;;5048738;28;20036;-82
2022/05/15 07:09:45;;;;;;;10.65;5.10;;;;;;;;;;5044620;28;20534;-77
2022/05/15 07:12:11;;;;;;;12.02;5.75;;;;;;;;;;5047367;28;20021;-78
2022/05/15 07:14:37;;;;;;;11.60;5.72;;;;;;;;;;5066082;28;20016;-80
2022/05/15 07:17:03;;;;;;;10.02;5.95;;;;;;;;;;5048093;28;20036;-79
2022/05/15 07:19:29;;;;;;;10.18;5.35;;;;;;;;;;5045207;28;20029;-77
2022/05/15 07:21:54;;;;;;;15.60;6.53;;;;;;;;;;5050148;28;20032;-83
2022/05/15 07:24:20;;;;;;;13.88;6.20;;;;;;;;;;5045963;28;20396;-78
2022/05/15 07:26:46;;;;;;;13.10;6.60;;;;;;;;;;5045799;28;20028;-77
2022/05/15 07:29:12;;;;;;;10.82;5.63;;;;;;;;;;5060472;28;20031;-77
2022/05/15 07:31:38;;;;;;;12.95;5.90;;;;;;;;;;5060108;28;20032;-79
2022/05/15 07:34:04;;;;;;;15.45;6.05;;;;;;;;;;5045929;28;20136;-84
2022/05/15 07:36:29;;;;;;;14.88;6.20;;;;;;;;;;5048677;28;20551;-84
2022/05/15 07:38:54;;;;;;;14.98;6.43;;;;;;;;;;5066947;28;20067;-78
2022/05/15 07:41:20;;;;;;;14.63;6.65;;;;;;;;;;5045949;28;20028;-85
2022/05/15 07:43:45;;;;;;;11.02;5.82;;;;;;;;;;5047641;28;20039;-77
2022/05/15 07:46:10;;;;;;;9.65;5.60;;;;;;;;;;5047722;28;20047;-85
2022/05/15 07:48:36;;;;;;;12.32;5.93;;;;;;;;;;5061310;28;21033;-83
2022/05/15 07:51:01;;;;;;;12.63;6.30;;;;;;;;;;5045569;28;20035;-86
2022/05/15 07:53:27;;;;;;;16.50;6.60;;;;;;;;;;5061884;28;20024;-80
2022/05/15 07:55:59;;;;;;;10.48;6.18;;;;;;;;;;5048386;28;20027;-79
2022/05/15 07:58:25;;;;;;;11.60;5.38;;;;;;;;;;5061930;28;20039;-80
2022/05/15 08:00:53;;;;;;;14.30;5.75;;;;;;;;;;5042288;28;20113;-78
2022/05/15 08:03:18;;;;;;;12.50;5.70;;;;;;;;;;5058502;28;20028;-78
2022/05/15 08:08:28;;;;;;;10.68;5.28;;;;;;;;;;5059754;28;20043;-83
2022/05/15 08:10:53;;;;;;;12.40;6.07;;;;;;;;;;5039784;28;20406;-79
2022/05/15 08:13:24;;;;;;;12.68;6.03;;;;;;;;;;5047584;28;20028;-79
2022/05/15 08:15:50;;;;;;;11.50;5.93;;;;;;;;;;5050985;28;20128;-78
2022/05/15 08:23:56;;;;;;;10.90;5.13;;;;;;;;;;5058728;28;20392;-83
2022/05/15 08:26:24;;;;;;;12.48;6.00;;;;;;;;;;5064748;28;20168;-77
2022/05/15 08:28:50;;;;;;;11.43;6.07;;;;;;;;;;5067808;28;20027;-79
2022/05/15 08:31:20;;;;;;;9.85;5.65;;;;;;;;;;5051315;28;20020;-82
2022/05/15 08:33:48;;;;;;;12.40;6.10;;;;;;;;;;5050483;28;20492;-84
2022/05/15 08:36:17;;;;;;;11.50;5.68;;;;;;;;;;5053285;28;20056;-84
2022/05/15 08:38:46;;;;;;;11.77;5.70;;;;;;;;;;5048092;28;20036;-78
2022/05/15 08:41:22;;;;;;;10.13;5.53;;;;;;;;;;5051546;28;20103;-86
2022/05/15 08:44:01;;;;;;;9.85;5.30;;;;;;;;;;5049525;28;20036;-79
2022/05/15 08:46:49;;;;;;;11.43;5.25;;;;;;;;;;5056487;28;20401;-87
2022/05/15 08:49:31;;;;;;;11.68;5.10;;;;;;;;;;5068094;28;20036;-86
2022/05/15 08:52:34;;;;;;;10.20;4.82;;;;;;;;;;5053119;28;20508;-84
2022/05/15 08:55:11;;;;;;;8.80;4.95;;;;;;;;;;5062584;28;20116;-79
2022/05/15 08:57:39;;;;;;;10.63;5.68;;;;;;;;;;5063116;28;20488;-86
2022/05/15 09:00:10;;;;;;;11.23;4.82;;;;;;;;;;5064427;28;20029;-81
2022/05/15 09:02:38;;;;;;;7.97;4.53;;;;;;;;;;5061320;28;20487;-78
2022/05/15 09:05:08;;;;;;;10.23;5.10;;;;;;;;;;5034673;28;20048;-77
2022/05/15 09:08:13;;;;;;;14.52;5.70;;;;;;;;;;5045780;28;20395;-78
2022/05/15 09:11:01;;;;;;;10.15;4.22;;;;;;;;;;5064216;28;20043;-80
2022/05/15 09:13:37;;;;;;;11.63;5.25;;;;;;;;;;5060121;28;20024;-77
2022/05/15 09:16:03;;;;;;;8.93;4.55;;;;;;;;;;5066128;28;20499;-77
2022/05/15 09:18:33;;;;;;;7.95;4.55;;;;;;;;;;5067624;28;20507;-78
2022/05/15 09:21:04;;;;;;;9.05;4.10;;;;;;;;;;5065372;28;20031;-81
2022/05/15 09:23:34;;;;;;;10.60;4.90;;;;;;;;;;5049428;28;20090;-81
2022/05/15 09:26:04;;;;;;;8.60;4.50;;;;;;;;;;5065926;28;20031;-76
2022/05/15 09:28:29;;;;;;;11.40;5.53;;;;;;;;;;5048321;28;20055;-81
2022/05/15 09:30:57;;;;;;;9.23;4.18;;;;;;;;;;5051760;28;20032;-78
2022/05/15 09:33:28;;;;;;;10.18;3.70;;;;;;;;;;5047707;28;20033;-81
2022/05/15 09:36:18;;;;;;;7.55;3.10;;;;;;;;;;5044151;28;20459;-79
2022/05/15 09:38:44;;;;;;;8.68;2.70;;;;;;;;;;5046712;28;20029;-77
2022/05/15 09:43:59;;;;;;;8.00;3.40;;;;;;;;;;5064768;28;20067;-76
2022/05/15 09:46:28;;;;;;;10.88;3.17;;;;;;;;;;5066883;28;20064;-80
2022/05/15 09:49:16;;;;;;;12.45;4.28;;;;;;;;;;5068775;28;20035;-80
2022/05/15 09:51:49;;;;;;;7.80;3.08;;;;;;;;;;5045336;28;20035;-76
2022/05/15 09:54:30;;;;;;;7.90;2.70;;;;;;;;;;5069307;28;20033;-82
2022/05/15 09:57:16;;;;;;;7.18;2.35;;;;;;;;;;5052345;28;20123;-81
2022/05/15 09:59:50;;;;;;;8.85;2.95;;;;;;;;;;5050885;28;20530;-76
2022/05/15 10:02:21;;;;;;;5.95;2.35;;;;;;;;;;5055883;28;20028;-76
2022/05/15 10:04:49;;;;;;;8.10;2.95;;;;;;;;;;5071208;28;20142;-77
2022/05/15 10:07:30;;;;;;;7.95;2.70;;;;;;;;;;5048119;28;20029;-78
2022/05/15 10:10:12;;;;;;;6.43;2.33;;;;;;;;;;5053034;28;20039;-82
2022/05/15 10:12:39;;;;;;;4.68;1.80;;;;;;;;;;5066757;28;20056;-79
2022/05/15 10:15:06;;;;;;;5.38;2.10;;;;;;;;;;5054649;28;20384;-76
2022/05/15 10:17:33;;;;;;;9.60;2.97;;;;;;;;;;5068651;28;20062;-78
2022/05/15 10:20:14;;;;;;;4.82;1.80;;;;;;;;;;5067699;28;20020;-76
2022/05/15 10:22:52;;;;;;;5.93;2.33;;;;;;;;;;5050713;28;20086;-81
2022/05/15 10:25:25;;;;;;;8.32;2.72;;;;;;;;;;5053196;28;20493;-77
2022/05/15 10:27:58;;;;;;;7.63;2.80;;;;;;;;;;5062755;28;20047;-79
2022/05/15 10:30:26;;;;;;;;;;;;;;;;;;5041241;28;20109;-77
2022/05/15 10:33:16;;;;;;;7.55;2.35;;;;;;;;;;5052996;28;20014;-81
2022/05/15 10:35:48;;;;;;;8.05;3.00;;;;;;;;;;5066528;28;20024;-81
2022/05/15 10:38:33;;;;;;;8.25;2.85;;;;;;;;;;5068279;28;20036;-77
2022/05/15 10:41:13;;;;;;;7.45;3.58;;;;;;;;;;5071141;28;20038;-76
2022/05/15 10:43:53;;;;;;;6.68;2.60;;;;;;;;;;5050379;28;20119;-77
2022/05/15 10:46:54;;;;;;;7.65;2.53;;;;;;;;;;5049922;28;20437;-81
2022/05/15 10:49:41;;;;;;;6.20;2.10;;;;;;;;;;5036196;28;20500;-77
2022/05/15 10:52:37;;;;;;;9.23;2.30;;;;;;;;;;5046248;28;20039;-83
2022/05/15 10:58:54;;;;;;;5.70;2.20;;;;;;;;;;5057961;28;20043;-81
2022/05/15 11:01:19;;;;;;;6.03;1.90;;;;;;;;;;5061839;28;20044;-78
2022/05/15 11:04:14;;;;;;;6.93;2.00;;;;;;;;;;5067789;28;20063;-78
2022/05/15 11:06:56;;;;;;;7.60;2.17;;;;;;;;;;5064232;28;20281;-78
2022/05/15 11:09:53;;;;;;;5.07;2.60;;;;;;;;;;5063655;28;20099;-78
2022/05/15 11:12:49;;;;;;;7.13;2.20;;;;;;;;;;5064679;28;20020;-82
2022/05/15 11:15:29;;;;;;;6.22;2.40;;;;;;;;;;5063152;28;20040;-78
2022/05/15 11:18:16;;;;;;;4.90;2.00;;;;;;;;;;5046407;28;20024;-77
2022/05/15 11:20:46;;;;;;;5.85;2.00;;;;;;;;;;5045826;28;20021;-77
2022/05/15 11:23:20;;;;;;;5.13;1.60;;;;;;;;;;5048567;28;20188;-77
2022/05/15 11:25:59;;;;;;;6.97;2.53;;;;;;;;;;5036215;28;20025;-78
2022/05/15 11:28:38;;;;;;;8.40;2.30;;;;;;;;;;5053132;28;20055;-79
2022/05/15 11:31:11;;;;;;;4.93;2.13;;;;;;;;;;5052300;28;20558;-77
2022/05/15 11:33:58;;;;;;;9.77;2.83;;;;;;;;;;5035546;28;20028;-81
2022/05/15 11:36:33;;;;;;;5.40;2.10;;;;;;;;;;5034443;28;20082;-80
2022/05/15 11:39:19;;;;;;;6.22;2.10;;;;;;;;;;5051387;28;20032;-80
2022/05/15 11:41:44;;;;;;;9.40;2.50;;;;;;;;;;5046274;28;20039;-82
2022/05/15 11:44:13;;;;;;;8.67;2.97;;;;;;;;;;5036890;28;20058;-80
2022/05/15 11:46:44;;;;;;;7.72;2.40;;;;;;;;;;5055296;28;20296;-76
2022/05/15 11:49:16;;;;;;;5.85;2.30;;;;;;;;;;5035493;28;20061;-81
2022/05/15 11:51:42;;;;;;;7.13;2.20;;;;;;;;;;5035172;28;20054;-78
2022/05/15 11:54:10;;;;;;;5.65;1.88;;;;;;;;;;5037328;28;20190;-77
2022/05/15 11:56:51;;;;;;;5.20;1.85;;;;;;;;;;5040076;28;20032;-78
2022/05/15 11:59:16;;;;;;;6.35;2.30;;;;;;;;;;5036741;28;20032;-82
2022/05/15 12:01:48;;;;;;;7.40;1.73;;;;;;;;;;5057122;28;20032;-78
2022/05/15 12:04:35;;;;;;;4.72;1.98;;;;;;;;;;5034974;28;20562;-81
2022/05/15 12:07:00;;;;;;;3.95;1.60;;;;;;;;;;5037282;28;20132;-80
2022/05/15 12:09:29;;;;;;;5.83;1.70;;;;;;;;;;5032083;28;20032;-78
2022/05/15 12:11:57;;;;;;;5.68;1.58;;;;;;;;;;5037352;28;20281;-77
2022/05/15 12:14:22;;;;;;;4.55;1.60;;;;;;;;;;5039948;28;20642;-76
2022/05/15 12:17:12;;;;;;;5.33;1.80;;;;;;;;;;5054528;28;20077;-78
2022/05/15 12:19:39;;;;;;;6.53;1.77;;;;;;;;;;5038601;28;20280;-80
2022/05/15 12:22:10;;;;;;;5.63;1.70;;;;;;;;;;5034167;28;20033;-78
2022/05/15 12:24:38;;;;;;;5.95;1.92;;;;;;;;;;5051711;28;20115;-79
2022/05/15 12:27:20;;;;;;;4.75;1.80;;;;;;;;;;5058713;28;20028;-82
2022/05/15 12:30:18;;;;;;;5.55;1.50;;;;;;;;;;5053431;28;20440;-79
2022/05/15 12:32:51;;;;;;;3.92;1.38;;;;;;;;;;5040425;28;20131;-80
2022/05/15 12:35:32;;;;;;;4.43;1.60;;;;;;;;;;5023019;28;20611;-79
2022/05/15 12:38:13;;;;;;;4.50;1.55;;;;;;;;;;5031565;28;20024;-79
2022/05/15 12:41:00;;;;;;;6.80;2.00;;;;;;;;;;5032951;28;20451;-80
2022/05/15 12:43:30;;;;;;;4.40;1.55;;;;;;;;;;5045143;28;20108;-80
2022/05/15 12:45:56;;;;;;;5.57;1.98;;;;;;;;;;5029212;28;20045;-79
2022/05/15 12:48:22;;;;;;;4.45;1.58;;;;;;;;;;5029714;28;20029;-80
2022/05/15 12:50:56;;;;;;;3.67;1.50;;;;;;;;;;5035466;28;20072;-80
2022/05/15 12:53:26;;;;;;;3.65;1.48;;;;;;;;;;5034078;28;20028;-80
2022/05/15 12:55:52;;;;;;;5.32;1.92;;;;;;;;;;5039029;28;20025;-77
2022/05/15 12:58:31;;;;;;;5.72;1.30;;;;;;;;;;5043864;28;20032;-77
2022/05/15 13:00:56;;;;;;;4.45;1.58;;;;;;;;;;5027219;28;20721;-78
2022/05/15 13:03:22;;;;;;;4.75;1.50;;;;;;;;;;5026077;28;20029;-80
2022/05/15 13:05:47;;;;;;;4.35;1.60;;;;;;;;;;5039979;28;20033;-78
2022/05/15 13:08:13;;;;;;;4.67;1.73;;;;;;;;;;5002901;28;20077;-77
2022/05/15 13:10:50;;;;;;;4.10;1.38;;;;;;;;;;5029008;28;20782;-79
2022/05/15 13:13:26;;;;;;;5.95;1.40;;;;;;;;;;5029993;28;20087;-77
2022/05/15 13:15:54;;;;;;;4.95;1.40;;;;;;;;;;5029301;28;20050;-79
2022/05/15 13:18:22;;;;;;;4.68;1.40;;;;;;;;;;5034557;28;20029;-80
2022/05/15 13:20:54;;;;;;;4.45;1.40;;;;;;;;;;5018131;28;20620;-79
2022/05/15 13:23:20;;;;;;;3.35;1.35;;;;;;;;;;5025917;28;20039;-82
2022/05/15 13:25:50;;;;;;;4.95;1.50;;;;;;;;;;5036439;28;20037;-81
2022/05/15 13:28:16;;;;;;;5.85;1.65;;;;;;;;;;5037109;28;20033;-77
2022/05/15 13:30:42;;;;;;;3.70;1.15;;;;;;;;;;5037869;28;20029;-80
2022/05/15 13:33:12;;;;;;;5.53;1.33;;;;;;;;;;5022813;28;20036;-81
2022/05/15 13:35:46;;;;;;;3.95;1.30;;;;;;;;;;5034361;28;20079;-81
2022/05/15 13:38:32;;;;;;;4.20;1.20;;;;;;;;;;5014361;28;20029;-82
2022/05/15 13:43:59;;;;;;;4.05;1.35;;;;;;;;;;5032656;28;20071;-80
2022/05/15 13:46:36;;;;;;;3.72;1.33;;;;;;;;;;5029372;28;20048;-79
2022/05/15 13:49:14;;;;;;;3.80;1.40;;;;;;;;;;5012773;28;20067;-78
2022/05/15 13:51:48;;;;;;;5.30;1.38;;;;;;;;;;5030665;28;20028;-80
2022/05/15 13:54:28;;;;;;;4.53;1.30;;;;;;;;;;5025253;28;20102;-76
2022/05/15 13:56:59;;;;;;;3.60;1.48;;;;;;;;;;5048005;28;20751;-76
2022/05/15 13:59:51;;;;;;;4.40;1.60;;;;;;;;;;5041843;28;20389;-77
2022/05/15 14:02:22;;;;;;;6.18;1.30;;;;;;;;;;5048880;28;20033;-78
2022/05/15 14:05:13;;;;;;;4.35;1.52;;;;;;;;;;5042734;28;20393;-80
2022/05/15 14:07:40;;;;;;;5.70;1.58;;;;;;;;;;5030627;28;20600;-81
2022/05/15 14:10:14;;;;;;;3.83;1.40;;;;;;;;;;5048924;28;20043;-76
2022/05/15 14:12:48;;;;;;;2.95;1.20;;;;;;;;;;5047868;28;20033;-76
2022/05/15 14:15:33;;;;;;;4.65;1.50;;;;;;;;;;5050071;28;20032;-82
2022/05/15 14:18:01;;;;;;;5.70;1.58;;;;;;;;;;5027940;28;20748;-77
2022/05/15 14:20:47;;;;;;;7.50;1.77;;;;;;;;;;5032083;28;20047;-81
2022/05/15 14:23:14;;;;;;;6.13;1.60;;;;;;;;;;5041236;28;20065;-76
2022/05/15 14:25:42;;;;;;;3.83;1.50;;;;;;;;;;5032287;28;20060;-77
2022/05/15 14:28:08;;;;;;;5.25;2.35;;;;;;;;;;5026550;28;20055;-81
2022/05/15 14:30:35;;;;;;;6.18;1.90;;;;;;;;;;5037629;28;20021;-78
2022/05/15 14:33:05;;;;;;;5.55;1.60;;;;;;;;;;5042370;28;20128;-77
2022/05/15 14:35:38;;;;;;;4.47;1.92;;;;;;;;;;5041319;28;20017;-80
2022/05/15 14:38:04;;;;;;;3.67;1.40;;;;;;;;;;5046587;28;20056;-77
2022/05/15 14:40:29;;;;;;;4.20;1.20;;;;;;;;;;5042239;28;20453;-81
2022/05/15 14:42:54;;;;;;;5.72;1.90;;;;;;;;;;5031340;28;20029;-77
2022/05/15 14:45:20;;;;;;;3.65;1.70;;;;;;;;;;5041658;28;20033;-77
2022/05/15 14:47:51;;;;;;;4.72;1.70;;;;;;;;;;5064971;28;20365;-77
2022/05/15 14:50:17;;;;;;;4.70;1.38;;;;;;;;;;5069119;28;20027;-83
2022/05/15 14:52:46;;;;;;;3.83;1.50;;;;;;;;;;5048947;28;20024;-76
2022/05/15 14:56:07;;;;;;;3.35;1.23;;;;;;;;;;5047541;28;20032;-80
2022/05/15 14:57:57;;;;;;;3.38;1.38;;;;;;;;;;5064770;28;20480;-80
2022/05/15 15:00:27;;;;;;;4.45;1.90;;;;;;;;;;5060022;28;20086;-81
2022/05/15 15:02:52;;;;;;;3.95;1.50;;;;;;;;;;5073107;28;20027;-78
2022/05/15 15:05:18;;;;;;;5.30;1.93;;;;;;;;;;5062003;28;20036;-82
2022/05/15 15:07:44;;;;;;;3.45;1.70;;;;;;;;;;5055479;28;20276;-79
2022/05/15 15:10:09;;;;;;;3.72;1.50;;;;;;;;;;5068295;28;20024;-79
2022/05/15 15:12:34;;;;;;;4.95;1.42;;;;;;;;;;5067140;28;20028;-78
2022/05/15 15:15:00;;;;;;;3.72;1.67;;;;;;;;;;5066544;28;20112;-77